createdAt,value
2023-09-03T00:00:48.272Z,1019.20
2023-09-03T00:01:47.605Z,1019.20
2023-09-03T00:02:48.335Z,1019.21
2023-09-03T00:03:47.581Z,1019.21
2023-09-03T00:04:47.411Z,1019.22
2023-09-03T00:05:47.450Z,1019.19
2023-09-03T00:06:48.333Z,1019.20
2023-09-03T00:07:47.371Z,1019.25
2023-09-03T00:08:47.428Z,1019.24
2023-09-03T00:09:56.796Z,1019.22
2023-09-03T00:11:11.329Z,1019.23
2023-09-03T00:12:00.421Z,1019.21
2023-09-03T00:12:47.084Z,1019.25
2023-09-03T00:13:47.139Z,1019.23
2023-09-03T00:14:47.023Z,1019.24
2023-09-03T00:15:47.144Z,1019.28
2023-09-03T00:16:47.159Z,1019.22
2023-09-03T00:17:47.048Z,1019.24
2023-09-03T00:18:47.009Z,1019.25
2023-09-03T00:19:46.833Z,1019.24
2023-09-03T00:20:46.920Z,1019.26
2023-09-03T00:21:46.789Z,1019.25
2023-09-03T00:22:46.734Z,1019.25
2023-09-03T00:23:46.693Z,1019.25
2023-09-03T00:24:46.697Z,1019.27
2023-09-03T00:25:46.657Z,1019.27
2023-09-03T00:26:46.624Z,1019.25
2023-09-03T00:27:46.525Z,1019.21
2023-09-03T00:28:46.588Z,1019.21
2023-09-03T00:29:46.595Z,1019.21
2023-09-03T00:30:46.459Z,1019.22
2023-09-03T00:31:46.423Z,1019.23
2023-09-03T00:32:46.399Z,1019.25
2023-09-03T00:33:46.323Z,1019.21
2023-09-03T00:34:46.265Z,1019.23
2023-09-03T00:35:47.027Z,1019.21
2023-09-03T00:36:46.193Z,1019.20
2023-09-03T00:37:46.212Z,1019.17
2023-09-03T00:38:46.141Z,1019.19
2023-09-03T00:39:46.106Z,1019.21
2023-09-03T00:40:46.057Z,1019.21
2023-09-03T00:41:45.988Z,1019.19
2023-09-03T00:42:46.006Z,1019.16
2023-09-03T00:43:45.990Z,1019.18
2023-09-03T00:44:50.425Z,1019.17
2023-09-03T00:45:45.908Z,1019.17
2023-09-03T00:46:45.849Z,1019.23
2023-09-03T00:47:45.894Z,1019.17
2023-09-03T00:48:45.729Z,1019.45
2023-09-03T00:49:45.691Z,1019.22
2023-09-03T00:50:45.751Z,1019.13
2023-09-03T00:51:47.422Z,1019.16
2023-09-03T00:52:45.644Z,1019.20
2023-09-03T00:53:45.639Z,1019.23
2023-09-03T00:54:46.461Z,1019.25
2023-09-03T00:55:45.513Z,1019.55
2023-09-03T00:56:45.436Z,1019.61
2023-09-03T00:57:45.429Z,1019.27
2023-09-03T00:58:45.410Z,1019.30
2023-09-03T00:59:45.343Z,1019.30
2023-09-03T01:00:45.288Z,1019.34
2023-09-03T01:01:46.019Z,1019.37
2023-09-03T01:02:45.999Z,1019.39
2023-09-03T01:03:45.261Z,1019.41
2023-09-03T01:04:45.161Z,1019.43
2023-09-03T01:05:45.458Z,1019.79
2023-09-03T01:06:45.102Z,1019.46
2023-09-03T01:07:45.047Z,1019.47
2023-09-03T01:08:44.981Z,1019.52
2023-09-03T01:09:46.967Z,1019.53
2023-09-03T01:10:44.910Z,1019.56
2023-09-03T01:11:44.873Z,1019.56
2023-09-03T01:12:44.859Z,1019.56
2023-09-03T01:13:44.851Z,1019.56
2023-09-03T01:14:44.748Z,1019.60
2023-09-03T01:15:44.811Z,1019.60
2023-09-03T01:16:44.680Z,1019.63
2023-09-03T01:17:44.645Z,1019.64
2023-09-03T01:18:44.626Z,1019.65
2023-09-03T01:19:44.646Z,1019.63
2023-09-03T01:20:44.721Z,1019.60
2023-09-03T01:21:45.448Z,1019.59
2023-09-03T01:25:39.267Z,1019.59
2023-09-03T01:26:37.308Z,1019.57
2023-09-03T01:27:40.463Z,1019.62
2023-09-03T01:30:11.203Z,1019.62
2023-09-03T01:31:11.273Z,1019.64
2023-09-03T01:32:10.712Z,1019.68
2023-09-03T01:33:10.645Z,1019.67
2023-09-03T01:34:10.622Z,1019.66
2023-09-03T01:35:10.604Z,1019.69
2023-09-03T01:36:10.692Z,1019.66
2023-09-03T01:37:10.717Z,1019.62
2023-09-03T01:38:11.341Z,1019.62
2023-09-03T01:39:10.474Z,1019.64
2023-09-03T01:40:10.425Z,1019.64
2023-09-03T01:41:10.435Z,1019.65
2023-09-03T01:42:10.381Z,1019.65
2023-09-03T01:43:10.332Z,1019.64
2023-09-03T01:44:10.260Z,1019.65
2023-09-03T01:45:10.736Z,1019.66
2023-09-03T01:46:10.285Z,1019.68
2023-09-03T01:47:10.155Z,1019.64
2023-09-03T01:48:10.199Z,1019.66
2023-09-03T01:49:10.176Z,1019.68
2023-09-03T01:50:10.017Z,1019.68
2023-09-03T01:51:12.316Z,1019.70
2023-09-03T01:52:09.961Z,1019.70
2023-09-03T01:53:09.913Z,1019.69
2023-09-03T01:54:09.879Z,1019.66
2023-09-03T01:55:09.856Z,1019.71
2023-09-03T01:56:11.740Z,1019.66
2023-09-03T01:57:09.813Z,1019.66
2023-09-03T01:58:09.780Z,1019.65
2023-09-03T01:59:09.683Z,1019.62
2023-09-03T02:00:09.650Z,1019.62
2023-09-03T02:01:09.634Z,1019.60
2023-09-03T02:02:09.650Z,1019.61
2023-09-03T02:03:09.542Z,1019.63
2023-09-03T02:04:09.474Z,1019.68
2023-09-03T02:05:09.541Z,1019.62
2023-09-03T02:06:09.534Z,1019.67
2023-09-03T02:07:09.511Z,1019.67
2023-09-03T02:08:10.258Z,1019.70
2023-09-03T02:09:09.286Z,1019.71
2023-09-03T02:10:09.300Z,1019.74
2023-09-03T02:11:09.361Z,1019.70
2023-09-03T02:12:09.183Z,1019.68
2023-09-03T02:13:09.213Z,1019.66
2023-09-03T02:14:09.086Z,1019.70
2023-09-03T02:15:09.080Z,1019.63
2023-09-03T02:16:09.064Z,1019.62
2023-09-03T02:17:18.329Z,1019.62
2023-09-03T02:18:08.968Z,1019.64
2023-09-03T02:19:08.899Z,1019.61
2023-09-03T02:20:08.915Z,1019.63
2023-09-03T02:21:27.332Z,1019.63
2023-09-03T02:22:08.779Z,1019.60
2023-09-03T02:23:09.286Z,1019.59
2023-09-03T02:24:08.813Z,1019.53
2023-09-03T02:25:08.717Z,1019.53
2023-09-03T02:26:09.356Z,1019.48
2023-09-03T02:27:08.618Z,1019.47
2023-09-03T02:28:08.672Z,1019.54
2023-09-03T02:31:02.715Z,1019.61
2023-09-03T02:31:49.697Z,1019.66
2023-09-03T02:32:48.557Z,1019.65
2023-09-03T02:33:48.611Z,1019.66
2023-09-03T02:34:48.449Z,1019.68
2023-09-03T02:35:48.465Z,1019.71
2023-09-03T02:36:50.331Z,1019.75
2023-09-03T02:37:48.477Z,1019.73
2023-09-03T02:38:48.365Z,1019.73
2023-09-03T02:39:48.318Z,1020.00
2023-09-03T02:40:48.292Z,1019.72
2023-09-03T02:41:48.216Z,1019.72
2023-09-03T02:42:48.266Z,1019.73
2023-09-03T02:43:48.286Z,1019.78
2023-09-03T02:44:48.152Z,1019.78
2023-09-03T02:45:48.263Z,1020.11
2023-09-03T02:46:48.037Z,1020.10
2023-09-03T02:47:48.021Z,1020.11
2023-09-03T02:48:47.982Z,1020.11
2023-09-03T02:49:47.954Z,1019.79
2023-09-03T02:50:48.753Z,1020.10
2023-09-03T02:51:47.858Z,1019.77
2023-09-03T02:52:47.802Z,1019.78
2023-09-03T02:53:47.756Z,1019.75
2023-09-03T02:54:47.740Z,1019.76
2023-09-03T02:55:47.729Z,1019.77
2023-09-03T02:56:47.785Z,1019.77
2023-09-03T02:57:47.682Z,1019.76
2023-09-03T02:58:47.678Z,1019.78
2023-09-03T02:59:47.527Z,1019.79
2023-09-03T03:00:47.495Z,1019.83
2023-09-03T03:01:47.520Z,1019.80
2023-09-03T03:02:47.434Z,1019.83
2023-09-03T03:03:50.227Z,1019.85
2023-09-03T03:04:47.514Z,1019.88
2023-09-03T03:05:47.375Z,1019.90
2023-09-03T03:06:47.371Z,1019.92
2023-09-03T03:07:47.275Z,1019.97
2023-09-03T03:08:47.202Z,1020.00
2023-09-03T03:09:47.182Z,1020.04
2023-09-03T03:10:47.727Z,1020.09
2023-09-03T03:11:47.191Z,1020.13
2023-09-03T03:12:47.014Z,1020.20
2023-09-03T03:13:47.026Z,1020.19
2023-09-03T03:14:46.966Z,1020.23
2023-09-03T03:15:46.959Z,1020.22
2023-09-03T03:16:46.920Z,1020.17
2023-09-03T03:17:46.893Z,1020.16
2023-09-03T03:18:46.820Z,1020.09
2023-09-03T03:19:46.783Z,1020.09
2023-09-03T03:20:46.734Z,1020.03
2023-09-03T03:21:46.694Z,1020.08
2023-09-03T03:22:48.246Z,1020.03
2023-09-03T03:23:46.741Z,1020.27
2023-09-03T03:24:46.626Z,1020.03
2023-09-03T03:25:46.694Z,1020.10
2023-09-03T03:26:46.666Z,1020.09
2023-09-03T03:27:46.603Z,1020.08
2023-09-03T03:28:46.461Z,1020.03
2023-09-03T03:29:46.389Z,1020.03
2023-09-03T03:30:46.338Z,1020.01
2023-09-03T03:31:47.404Z,1019.99
2023-09-03T03:32:47.276Z,1019.96
2023-09-03T03:33:46.292Z,1019.93
2023-09-03T03:34:46.180Z,1019.92
2023-09-03T03:35:46.162Z,1019.93
2023-09-03T03:36:46.131Z,1019.92
2023-09-03T03:37:46.159Z,1019.86
2023-09-03T03:38:46.087Z,1019.77
2023-09-03T03:39:46.718Z,1019.79
2023-09-03T03:40:45.923Z,1019.73
2023-09-03T03:41:45.925Z,1019.71
2023-09-03T03:42:45.875Z,1019.69
2023-09-03T03:43:45.873Z,1019.74
2023-09-03T03:44:45.830Z,1019.74
2023-09-03T03:45:46.797Z,1019.73
2023-09-03T03:46:47.258Z,1019.77
2023-09-03T03:47:45.776Z,1019.78
2023-09-03T03:48:45.745Z,1019.72
2023-09-03T03:49:45.633Z,1019.74
2023-09-03T03:50:45.560Z,1019.76
2023-09-03T03:51:45.528Z,1019.76
2023-09-03T03:52:45.461Z,1019.73
2023-09-03T03:53:45.475Z,1019.76
2023-09-03T03:54:45.401Z,1019.72
2023-09-03T03:55:45.348Z,1019.74
2023-09-03T03:56:45.329Z,1019.74
2023-09-03T03:57:45.431Z,1019.71
2023-09-03T03:58:45.718Z,1019.72
2023-09-03T03:59:45.210Z,1019.70
2023-09-03T04:00:46.172Z,1019.69
2023-09-03T04:01:45.208Z,1019.72
2023-09-03T04:02:46.890Z,1019.79
2023-09-03T04:03:45.225Z,1019.77
2023-09-03T04:04:45.017Z,1019.80
2023-09-03T04:05:44.998Z,1019.85
2023-09-03T04:06:44.957Z,1019.87
2023-09-03T04:07:44.902Z,1019.94
2023-09-03T04:08:45.174Z,1019.95
2023-09-03T04:09:44.807Z,1020.00
2023-09-03T04:10:44.789Z,1020.04
2023-09-03T04:11:44.768Z,1020.03
2023-09-03T04:12:44.730Z,1020.06
2023-09-03T04:13:44.680Z,1020.09
2023-09-03T04:14:44.623Z,1020.12
2023-09-03T04:15:44.652Z,1020.11
2023-09-03T04:16:44.624Z,1020.07
2023-09-03T04:17:46.150Z,1020.04
2023-09-03T04:18:44.506Z,1020.05
2023-09-03T04:19:44.513Z,1020.05
2023-09-03T04:20:44.458Z,1019.99
2023-09-03T04:21:44.368Z,1020.01
2023-09-03T04:22:46.272Z,1020.01
2023-09-03T04:23:44.299Z,1019.99
2023-09-03T04:24:44.323Z,1020.04
2023-09-03T04:25:44.724Z,1020.06
2023-09-03T04:26:44.686Z,1020.06
2023-09-03T04:27:44.728Z,1020.09
2023-09-03T04:28:44.197Z,1020.07
2023-09-03T04:29:44.049Z,1020.10
2023-09-03T04:30:44.093Z,1020.16
2023-09-03T04:31:44.046Z,1020.22
2023-09-03T04:32:45.274Z,1020.28
2023-09-03T04:33:44.697Z,1020.52
2023-09-03T04:34:43.931Z,1020.21
2023-09-03T04:35:43.848Z,1020.22
2023-09-03T04:36:44.778Z,1020.25
2023-09-03T04:37:44.779Z,1020.24
2023-09-03T04:38:44.752Z,1020.27
2023-09-03T04:39:43.740Z,1020.28
2023-09-03T04:40:43.671Z,1020.30
2023-09-03T04:41:44.223Z,1020.33
2023-09-03T04:42:43.679Z,1020.32
2023-09-03T04:43:44.263Z,1020.32
2023-09-03T04:44:43.460Z,1020.37
2023-09-03T04:45:43.453Z,1020.36
2023-09-03T04:46:43.486Z,1020.41
2023-09-03T04:47:43.416Z,1020.41
2023-09-03T04:48:53.060Z,1020.43
2023-09-03T04:49:52.806Z,1020.43
2023-09-03T04:51:05.280Z,1020.42
2023-09-03T04:51:43.202Z,1020.44
2023-09-03T04:52:43.141Z,1020.49
2023-09-03T04:53:43.135Z,1020.48
2023-09-03T04:54:43.070Z,1020.50
2023-09-03T04:55:43.036Z,1020.49
2023-09-03T04:56:42.990Z,1020.52
2023-09-03T04:57:42.970Z,1020.58
2023-09-03T04:58:43.469Z,1020.58
2023-09-03T04:59:42.901Z,1020.64
2023-09-03T05:00:42.855Z,1020.62
2023-09-03T05:01:42.842Z,1020.62
2023-09-03T05:02:42.823Z,1020.57
2023-09-03T05:03:42.872Z,1020.62
2023-09-03T05:04:42.684Z,1020.93
2023-09-03T05:05:42.685Z,1020.63
2023-09-03T05:06:42.652Z,1020.60
2023-09-03T05:07:42.628Z,1020.64
2023-09-03T05:08:42.536Z,1020.66
2023-09-03T05:09:42.500Z,1020.61
2023-09-03T05:10:42.461Z,1020.65
2023-09-03T05:11:42.450Z,1020.69
2023-09-03T05:12:42.382Z,1020.69
2023-09-03T05:13:42.362Z,1020.71
2023-09-03T05:14:42.308Z,1020.67
2023-09-03T05:15:42.279Z,1020.65
2023-09-03T05:16:42.283Z,1020.68
2023-09-03T05:17:42.248Z,1020.64
2023-09-03T05:18:42.159Z,1020.69
2023-09-03T05:19:42.124Z,1020.71
2023-09-03T05:20:42.074Z,1020.77
2023-09-03T05:21:42.061Z,1021.11
2023-09-03T05:22:42.004Z,1020.83
2023-09-03T05:23:41.973Z,1020.83
2023-09-03T05:24:41.927Z,1020.85
2023-09-03T05:25:41.891Z,1020.85
2023-09-03T05:26:41.865Z,1020.88
2023-09-03T05:27:41.844Z,1020.85
2023-09-03T05:28:41.781Z,1020.89
2023-09-03T05:29:41.789Z,1020.86
2023-09-03T05:30:41.701Z,1020.85
2023-09-03T05:31:41.734Z,1020.85
2023-09-03T05:32:41.671Z,1021.20
2023-09-03T05:33:41.594Z,1021.20
2023-09-03T05:34:41.553Z,1020.91
2023-09-03T05:35:41.520Z,1020.93
2023-09-03T05:36:41.493Z,1020.90
2023-09-03T05:37:41.441Z,1021.27
2023-09-03T05:38:41.407Z,1020.96
2023-09-03T05:39:41.386Z,1020.95
2023-09-03T05:40:41.323Z,1020.94
2023-09-03T05:41:41.314Z,1020.96
2023-09-03T05:42:41.259Z,1020.92
2023-09-03T05:43:41.210Z,1020.93
2023-09-03T05:44:41.174Z,1020.99
2023-09-03T05:45:41.178Z,1020.98
2023-09-03T05:46:41.117Z,1020.98
2023-09-03T05:47:41.106Z,1021.13
2023-09-03T05:48:41.029Z,1021.00
2023-09-03T05:49:40.992Z,1020.99
2023-09-03T05:50:40.951Z,1021.02
2023-09-03T05:51:40.917Z,1021.03
2023-09-03T05:52:40.880Z,1021.41
2023-09-03T05:53:40.865Z,1021.31
2023-09-03T05:54:40.816Z,1021.44
2023-09-03T05:55:40.990Z,1021.12
2023-09-03T05:56:40.732Z,1021.12
2023-09-03T05:57:40.692Z,1021.15
2023-09-03T05:58:40.649Z,1021.13
2023-09-03T05:59:40.644Z,1021.15
2023-09-03T06:00:43.451Z,1021.44
2023-09-03T06:01:40.586Z,1021.15
2023-09-03T06:02:40.508Z,1021.16
2023-09-03T06:03:40.534Z,1021.18
2023-09-03T06:04:40.424Z,1021.21
2023-09-03T06:05:40.484Z,1021.23
2023-09-03T06:06:40.352Z,1021.27
2023-09-03T06:07:40.352Z,1021.31
2023-09-03T06:08:40.336Z,1021.34
2023-09-03T06:09:40.266Z,1021.39
2023-09-03T06:10:40.203Z,1021.46
2023-09-03T06:11:40.173Z,1021.49
2023-09-03T06:12:40.121Z,1021.56
2023-09-03T06:13:40.116Z,1021.55
2023-09-03T06:14:41.083Z,1021.59
2023-09-03T06:15:40.032Z,1021.62
2023-09-03T06:16:39.991Z,1021.62
2023-09-03T06:17:39.962Z,1021.61
2023-09-03T06:18:39.999Z,1021.58
2023-09-03T06:19:39.900Z,1021.55
2023-09-03T06:20:39.838Z,1021.54
2023-09-03T06:21:39.800Z,1021.53
2023-09-03T06:22:39.754Z,1021.49
2023-09-03T06:23:39.741Z,1021.84
2023-09-03T06:24:39.684Z,1021.54
2023-09-03T06:25:39.662Z,1021.57
2023-09-03T06:26:39.607Z,1021.58
2023-09-03T06:27:39.586Z,1021.61
2023-09-03T06:28:39.535Z,1021.68
2023-09-03T06:29:48.062Z,1021.69
2023-09-03T06:30:39.463Z,1021.71
2023-09-03T06:31:39.471Z,1021.70
2023-09-03T06:32:39.406Z,1021.70
2023-09-03T06:33:39.342Z,1021.76
2023-09-03T06:34:39.310Z,1021.79
2023-09-03T06:35:39.294Z,1021.82
2023-09-03T06:36:39.230Z,1021.79
2023-09-03T06:37:39.205Z,1021.78
2023-09-03T06:38:39.171Z,1021.77
2023-09-03T06:39:39.126Z,1021.83
2023-09-03T06:40:39.100Z,1021.86
2023-09-03T06:41:39.073Z,1021.92
2023-09-03T06:42:39.018Z,1021.93
2023-09-03T06:43:38.976Z,1021.91
2023-09-03T06:44:38.965Z,1022.27
2023-09-03T06:45:38.920Z,1022.30
2023-09-03T06:46:38.951Z,1022.02
2023-09-03T06:47:38.963Z,1022.05
2023-09-03T06:48:38.790Z,1022.12
2023-09-03T06:49:38.768Z,1022.17
2023-09-03T06:50:38.744Z,1022.16
2023-09-03T06:51:38.684Z,1022.18
2023-09-03T06:52:38.649Z,1022.20
2023-09-03T06:53:38.625Z,1022.18
2023-09-03T06:54:38.574Z,1022.20
2023-09-03T06:55:38.547Z,1022.28
2023-09-03T06:56:38.517Z,1022.24
2023-09-03T06:57:38.464Z,1022.24
2023-09-03T06:58:38.438Z,1022.28
2023-09-03T06:59:38.427Z,1022.30
2023-09-03T07:00:38.393Z,1022.34
2023-09-03T07:01:38.382Z,1022.35
2023-09-03T07:02:38.314Z,1022.37
2023-09-03T07:03:38.315Z,1022.42
2023-09-03T07:04:38.218Z,1022.42
2023-09-03T07:05:38.206Z,1022.44
2023-09-03T07:06:38.142Z,1022.45
2023-09-03T07:08:13.964Z,1022.47
2023-09-03T07:08:38.082Z,1022.49
2023-09-03T07:09:38.067Z,1022.52
2023-09-03T07:10:38.077Z,1022.51
2023-09-03T07:11:37.961Z,1022.51
2023-09-03T07:12:37.943Z,1022.85
2023-09-03T07:13:37.899Z,1022.54
2023-09-03T07:14:37.855Z,1022.48
2023-09-03T07:15:38.014Z,1022.54
2023-09-03T07:16:37.841Z,1022.50
2023-09-03T07:17:37.797Z,1022.49
2023-09-03T07:18:37.756Z,1022.54
2023-09-03T07:19:37.712Z,1022.48
2023-09-03T07:20:37.722Z,1022.50
2023-09-03T07:21:37.750Z,1022.52
2023-09-03T07:22:37.730Z,1022.49
2023-09-03T07:23:37.534Z,1022.52
2023-09-03T07:24:37.497Z,1022.57
2023-09-03T07:25:37.465Z,1022.71
2023-09-03T07:26:37.461Z,1022.59
2023-09-03T07:27:37.405Z,1022.61
2023-09-03T07:28:37.360Z,1022.72
2023-09-03T07:29:37.322Z,1022.61
2023-09-03T07:30:37.328Z,1022.59
2023-09-03T07:31:37.242Z,1022.59
2023-09-03T07:32:37.241Z,1022.56
2023-09-03T07:33:37.201Z,1022.90
2023-09-03T07:34:37.149Z,1022.59
2023-09-03T07:35:37.120Z,1022.59
2023-09-03T07:36:37.083Z,1022.61
2023-09-03T07:37:37.026Z,1022.64
2023-09-03T07:38:36.996Z,1022.99
2023-09-03T07:39:36.974Z,1022.67
2023-09-03T07:40:36.925Z,1022.69
2023-09-03T07:41:36.887Z,1022.99
2023-09-03T07:42:36.859Z,1022.69
2023-09-03T07:43:36.837Z,1022.71
2023-09-03T07:44:36.782Z,1022.71
2023-09-03T07:45:36.751Z,1022.76
2023-09-03T07:46:36.829Z,1023.17
2023-09-03T07:47:36.727Z,1022.86
2023-09-03T07:48:36.686Z,1022.89
2023-09-03T07:49:36.614Z,1022.92
2023-09-03T07:50:36.573Z,1022.95
2023-09-03T07:51:36.560Z,1023.30
2023-09-03T07:52:36.515Z,1023.32
2023-09-03T07:53:36.476Z,1022.97
2023-09-03T07:54:36.442Z,1022.93
2023-09-03T07:55:36.427Z,1023.29
2023-09-03T07:56:36.378Z,1022.98
2023-09-03T07:57:36.356Z,1022.97
2023-09-03T07:58:36.298Z,1023.09
2023-09-03T07:59:36.272Z,1023.15
2023-09-03T08:00:36.255Z,1023.03
2023-09-03T08:01:36.203Z,1023.12
2023-09-03T08:02:36.171Z,1023.26
2023-09-03T08:03:36.208Z,1023.34
2023-09-03T08:04:36.102Z,1023.31
2023-09-03T08:05:36.052Z,1023.29
2023-09-03T08:06:36.021Z,1023.26
2023-09-03T08:07:36.003Z,1023.38
2023-09-03T08:08:35.996Z,1023.37
2023-09-03T08:09:35.939Z,1023.37
2023-09-03T08:10:35.889Z,1023.29
2023-09-03T08:11:35.856Z,1023.44
2023-09-03T08:12:35.808Z,1023.49
2023-09-03T08:13:36.761Z,1023.49
2023-09-03T08:14:35.811Z,1023.56
2023-09-03T08:15:44.315Z,1023.59
2023-09-03T08:16:35.716Z,1023.62
2023-09-03T08:17:35.655Z,1023.50
2023-09-03T08:18:35.624Z,1023.43
2023-09-03T08:19:35.592Z,1023.38
2023-09-03T08:20:35.555Z,1023.63
2023-09-03T08:21:36.037Z,1023.43
2023-09-03T08:22:35.487Z,1023.54
2023-09-03T08:23:35.462Z,1023.21
2023-09-03T08:24:35.425Z,1023.15
2023-09-03T08:25:35.398Z,1023.52
2023-09-03T08:26:35.393Z,1023.12
2023-09-03T08:27:35.338Z,1023.47
2023-09-03T08:28:35.310Z,1023.54
2023-09-03T08:29:35.277Z,1023.29
2023-09-03T08:30:35.255Z,1023.35
2023-09-03T08:31:35.264Z,1023.32
2023-09-03T08:32:35.223Z,1023.68
2023-09-03T08:33:35.140Z,1023.46
2023-09-03T08:34:35.122Z,1023.44
2023-09-03T08:35:35.108Z,1023.27
2023-09-03T08:36:35.049Z,1023.26
2023-09-03T08:37:35.057Z,1023.36
2023-09-03T08:38:34.985Z,1023.36
2023-09-03T08:39:34.968Z,1023.54
2023-09-03T08:40:34.922Z,1023.30
2023-09-03T08:41:34.913Z,1023.34
2023-09-03T08:42:34.886Z,1023.36
2023-09-03T08:43:34.844Z,1023.32
2023-09-03T08:44:34.850Z,1023.30
2023-09-03T08:45:34.818Z,1023.34
2023-09-03T08:46:34.749Z,1023.32
2023-09-03T08:47:34.748Z,1023.62
2023-09-03T08:48:34.687Z,1023.36
2023-09-03T08:49:34.649Z,1023.32
2023-09-03T08:50:34.647Z,1023.40
2023-09-03T08:51:34.598Z,1023.37
2023-09-03T08:52:34.550Z,1023.36
2023-09-03T08:53:34.547Z,1023.52
2023-09-03T08:54:34.487Z,1023.34
2023-09-03T08:55:34.457Z,1023.39
2023-09-03T08:56:34.463Z,1023.40
2023-09-03T08:57:34.402Z,1023.46
2023-09-03T08:58:34.372Z,1023.73
2023-09-03T08:59:34.337Z,1023.72
2023-09-03T09:00:34.388Z,1023.65
2023-09-03T09:01:34.468Z,1023.51
2023-09-03T09:02:34.321Z,1023.41
2023-09-03T09:03:34.337Z,1023.41
2023-09-03T09:04:34.193Z,1023.33
2023-09-03T09:05:35.722Z,1023.65
2023-09-03T09:06:34.133Z,1023.32
2023-09-03T09:07:34.100Z,1023.21
2023-09-03T09:08:34.077Z,1023.44
2023-09-03T09:09:34.028Z,1023.29
2023-09-03T09:10:34.076Z,1023.64
2023-09-03T09:11:33.981Z,1023.32
2023-09-03T09:12:33.945Z,1023.64
2023-09-03T09:13:33.920Z,1023.28
2023-09-03T09:14:33.895Z,1023.55
2023-09-03T09:15:33.901Z,1023.24
2023-09-03T09:16:33.823Z,1023.32
2023-09-03T09:17:33.833Z,1023.21
2023-09-03T09:18:33.770Z,1023.20
2023-09-03T09:19:33.742Z,1023.22
2023-09-03T09:20:33.728Z,1023.23
2023-09-03T09:21:33.700Z,1023.48
2023-09-03T09:22:33.636Z,1023.23
2023-09-03T09:23:33.628Z,1023.35
2023-09-03T09:24:43.558Z,1023.60
2023-09-03T09:25:43.584Z,1023.29
2023-09-03T09:26:42.623Z,1023.35
2023-09-03T09:27:35.153Z,1023.29
2023-09-03T09:28:33.495Z,1023.51
2023-09-03T09:29:33.435Z,1023.31
2023-09-03T09:30:33.411Z,1023.31
2023-09-03T09:31:33.409Z,1023.29
2023-09-03T09:32:33.364Z,1023.29
2023-09-03T09:33:33.342Z,1023.26
2023-09-03T09:34:33.335Z,1023.27
2023-09-03T09:35:33.308Z,1023.25
2023-09-03T09:36:33.252Z,1023.24
2023-09-03T09:37:33.204Z,1023.21
2023-09-03T09:38:33.183Z,1023.16
2023-09-03T09:39:33.162Z,1023.16
2023-09-03T09:40:33.142Z,1023.19
2023-09-03T09:41:33.096Z,1023.20
2023-09-03T09:42:33.058Z,1023.23
2023-09-03T09:43:33.049Z,1023.26
2023-09-03T09:44:33.006Z,1023.29
2023-09-03T09:45:33.008Z,1023.57
2023-09-03T09:46:33.148Z,1023.37
2023-09-03T09:47:32.935Z,1023.34
2023-09-03T09:48:32.877Z,1023.33
2023-09-03T09:49:32.861Z,1023.34
2023-09-03T09:50:32.822Z,1023.44
2023-09-03T09:51:32.812Z,1023.67
2023-09-03T09:52:32.776Z,1023.41
2023-09-03T09:53:32.753Z,1023.41
2023-09-03T09:54:32.714Z,1023.45
2023-09-03T09:55:32.704Z,1023.40
2023-09-03T09:56:32.689Z,1023.39
2023-09-03T09:57:32.637Z,1023.37
2023-09-03T09:58:32.596Z,1023.39
2023-09-03T09:59:32.579Z,1023.61
2023-09-03T10:00:32.641Z,1023.59
2023-09-03T10:01:32.512Z,1023.28
2023-09-03T10:02:32.510Z,1023.30
2023-09-03T10:03:32.523Z,1023.31
2023-09-03T10:04:32.443Z,1023.28
2023-09-03T10:05:32.447Z,1023.33
2023-09-03T10:06:32.426Z,1023.27
2023-09-03T10:07:32.353Z,1023.51
2023-09-03T10:08:32.315Z,1023.22
2023-09-03T10:09:32.288Z,1023.16
2023-09-03T10:10:32.270Z,1023.19
2023-09-03T10:11:32.266Z,1023.20
2023-09-03T10:12:32.193Z,1023.19
2023-09-03T10:13:32.172Z,1023.21
2023-09-03T10:14:32.144Z,1023.47
2023-09-03T10:15:32.193Z,1023.16
2023-09-03T10:16:33.873Z,1023.34
2023-09-03T10:17:32.155Z,1023.15
2023-09-03T10:18:32.036Z,1023.14
2023-09-03T10:19:32.004Z,1023.18
2023-09-03T10:20:32.006Z,1023.20
2023-09-03T10:21:52.559Z,1023.16
2023-09-03T10:22:31.921Z,1023.15
2023-09-03T10:23:31.881Z,1023.46
2023-09-03T10:24:31.867Z,1023.18
2023-09-03T10:25:31.829Z,1023.21
2023-09-03T10:26:31.826Z,1023.15
2023-09-03T10:27:31.784Z,1023.52
2023-09-03T10:28:31.831Z,1023.18
2023-09-03T10:29:31.789Z,1023.19
2023-09-03T10:30:31.689Z,1023.47
2023-09-03T10:31:31.669Z,1023.14
2023-09-03T10:32:31.672Z,1023.42
2023-09-03T10:33:31.611Z,1023.16
2023-09-03T10:34:31.567Z,1023.39
2023-09-03T10:35:31.545Z,1023.12
2023-09-03T10:36:31.517Z,1023.11
2023-09-03T10:37:31.480Z,1023.15
2023-09-03T10:38:31.463Z,1023.45
2023-09-03T10:39:31.429Z,1023.38
2023-09-03T10:40:31.396Z,1023.14
2023-09-03T10:41:31.377Z,1023.10
2023-09-03T10:42:31.373Z,1023.09
2023-09-03T10:43:31.312Z,1023.10
2023-09-03T10:44:31.308Z,1023.07
2023-09-03T10:45:31.258Z,1023.39
2023-09-03T10:46:31.248Z,1023.08
2023-09-03T10:47:31.251Z,1023.41
2023-09-03T10:48:31.164Z,1023.06
2023-09-03T10:49:39.893Z,1023.07
2023-09-03T10:50:31.132Z,1023.09
2023-09-03T10:51:31.156Z,1023.26
2023-09-03T10:52:31.050Z,1023.00
2023-09-03T10:53:31.090Z,1023.00
2023-09-03T10:54:30.993Z,1022.96
2023-09-03T10:55:30.971Z,1022.96
2023-09-03T10:56:30.925Z,1023.09
2023-09-03T10:57:30.926Z,1022.95
2023-09-03T10:58:30.881Z,1022.96
2023-09-03T10:59:30.845Z,1022.98
2023-09-03T11:00:30.817Z,1023.08
2023-09-03T11:01:30.817Z,1023.17
2023-09-03T11:02:30.807Z,1023.22
2023-09-03T11:03:30.790Z,1022.92
2023-09-03T11:04:30.734Z,1023.07
2023-09-03T11:05:30.669Z,1023.22
2023-09-03T11:06:30.634Z,1022.87
2023-09-03T11:07:30.605Z,1022.93
2023-09-03T11:08:30.644Z,1023.21
2023-09-03T11:09:30.556Z,1023.15
2023-09-03T11:10:30.516Z,1022.93
2023-09-03T11:11:31.705Z,1022.90
2023-09-03T11:12:30.464Z,1022.92
2023-09-03T11:13:39.166Z,1023.25
2023-09-03T11:14:30.420Z,1023.16
2023-09-03T11:15:30.412Z,1023.24
2023-09-03T11:16:30.354Z,1022.96
2023-09-03T11:17:30.374Z,1022.96
2023-09-03T11:18:30.307Z,1023.21
2023-09-03T11:19:30.267Z,1022.91
2023-09-03T11:20:43.664Z,1023.16
2023-09-03T11:21:30.211Z,1023.04
2023-09-03T11:22:30.202Z,1022.98
2023-09-03T11:23:31.925Z,1023.02
2023-09-03T11:24:30.620Z,1023.19
2023-09-03T11:25:30.085Z,1022.96
2023-09-03T11:26:30.061Z,1022.95
2023-09-03T11:27:30.045Z,1022.94
2023-09-03T11:28:30.019Z,1022.92
2023-09-03T11:29:29.976Z,1023.15
2023-09-03T11:30:29.945Z,1023.03
2023-09-03T11:31:30.010Z,1023.00
2023-09-03T11:32:30.027Z,1023.30
2023-09-03T11:33:29.861Z,1023.29
2023-09-03T11:34:29.827Z,1023.03
2023-09-03T11:35:29.807Z,1022.99
2023-09-03T11:36:29.774Z,1023.00
2023-09-03T11:37:29.759Z,1022.97
2023-09-03T11:38:29.716Z,1022.95
2023-09-03T11:39:29.697Z,1023.04
2023-09-03T11:40:29.665Z,1022.90
2023-09-03T11:41:29.630Z,1022.86
2023-09-03T11:42:29.636Z,1022.85
2023-09-03T11:43:29.577Z,1022.98
2023-09-03T11:44:29.543Z,1022.90
2023-09-03T11:45:29.513Z,1022.79
2023-09-03T11:46:29.508Z,1022.85
2023-09-03T11:47:29.460Z,1022.83
2023-09-03T11:48:29.437Z,1022.89
2023-09-03T11:49:29.405Z,1023.21
2023-09-03T11:50:29.363Z,1022.88
2023-09-03T11:51:29.846Z,1023.12
2023-09-03T11:52:29.300Z,1022.96
2023-09-03T11:53:29.291Z,1022.84
2023-09-03T11:54:29.262Z,1023.03
2023-09-03T11:55:29.240Z,1022.81
2023-09-03T11:56:29.192Z,1022.84
2023-09-03T11:57:29.155Z,1022.82
2023-09-03T11:58:29.128Z,1023.10
2023-09-03T11:59:29.100Z,1022.82
2023-09-03T12:00:29.090Z,1023.11
2023-09-03T12:01:29.078Z,1023.10
2023-09-03T12:02:29.010Z,1022.99
2023-09-03T12:03:29.127Z,1023.10
2023-09-03T12:04:28.962Z,1022.79
2023-09-03T12:05:28.922Z,1022.90
2023-09-03T12:06:28.882Z,1023.04
2023-09-03T12:07:28.856Z,1023.05
2023-09-03T12:08:28.836Z,1022.88
2023-09-03T12:09:28.807Z,1022.79
2023-09-03T12:10:28.910Z,1022.87
2023-09-03T12:11:28.738Z,1022.89